Royse City, TX (75189)

7:54 AM CST on December 26, 2014 (GMT -0600)
McKamy Meadows | Change Station
CLOSE
Current Station
Personal Weather Station
Location: Royse City, TX
Elevation: 553 ft
Nearby Weather Stations

Elev 553 ft 32.97 °N, 96.34 °W | Updated 6 seconds ago

Overcast
Overcast
54.7 °F
Feels Like 54.7 °F
N
3.6
Wind Variable Wind from East
Gusts 0.0 mph

Today
High -- | Low -- °F
--% Chance of Precip.
Yesterday
High -- | Low -- °F
Precip. -- in
7:26 AM 5:25 PM
Waxing Crescent, 26% visible
Pressure 29.93 in
Visibility 10.0 miles
Clouds Scattered Clouds 3300 ft
Scattered Clouds 3800 ft
Overcast 4700 ft
Dew Point 48 °F
Humidity 79%
Rainfall 0.00 in
Snow Depth Not available.
UV 0 out of 12
Pollen 10.50 out of 12
Air Quality Not available.
Flu Activity Not available.
METAR KF46 261335Z AUTO 16009G16KT 10SM SCT033 SCT038 OVC047 14/10 A2993 RMK AO2 T01350101

More Conditions Fewer Conditions

Pressure 29.93 in
Visibility 10.0 miles
Clouds Scattered Clouds 3300 ft
Scattered Clouds 3800 ft
Overcast 4700 ft
Dew Point 48 °F
Humidity 79%
Rainfall 0.00 in
Snow Depth Not available.
UV 0 out of 12
Pollen 10.50 out of 12
Air Quality Not available.
Flu Activity Not available.
METAR KF46 261335Z AUTO 16009G16KT 10SM SCT033 SCT038 OVC047 14/10 A2993 RMK AO2 T01350101

More Conditions Fewer Conditions

10-Day Weather Forecast

Almanac

Astronomy

Dec. 26, 2014 Rise Set
Actual Time
Civil Twilight
Nautical Twilight
Astronomical Twilight
Moon
Length of Visible Light
Length of Day
Tomorrow will be .
, % of the Moon is Illuminated

Today's Extremes

State Highs State Lows

Community

WunderPhotos

Upload Photos

1,780,593 photos uploaded!

WunderBlogs® & News

Nearby

Air Quality

  Air Quality AQ Index Pollutant
Not available.

Snow Depth

Station Depth Elevation

Earthquake Activity

City Distance Mag. Time & Date
Minimum magnitude displayed is 2.5.

Coastal Water Temperatures

Place Temperature

Nearby Weather Stations